• Join FlightAware (Why Join?)
  • Login
  • US Flag 
08:45PM EDT


 

Airport Tracker/Info


-or-


 

Live Flight TrackerFlight Track Log ✈ N27XP ✈ 28-Mar-2014 ✈ KIPJ - KSOP

Flight Track Log - Related Links

Times and Time Zones

All times are in EDT time to prevent confusion due to time zone crossing. See the N27XP flight status page for this flight to view local times or setup timezone preferences in your user account.

Time Position Orientation Groundspeed Altitude Reporting Facility
EDT Latitude Longitude Course Direction KTS MPH feet Rate Location/Type
03:58PM 35.4781 -81.1697 224° Southwest 233 268 1,300  Level Atlanta Center
03:58PM 35.4517 -81.2011 224° Southwest 172 198 3,400 2,340 Climbing Atlanta Center
03:59PM 35.4192 -81.2381 223° Southwest 192 221 4,900 780 Climbing Atlanta Center
04:00PM 35.3703 -81.2881 220° Southwest 202 232 5,000  Climbing Atlanta Center
04:01PM 35.3225 -81.2947 186° South 218 251 5,000  Level Atlanta Center
04:02PM 35.2608 -81.2458 147° Southeast 258 297 5,000  Level Atlanta Center
04:03PM 35.2322 -81.1833 119° Southeast 270 311 5,000  Level Atlanta Center
04:04PM 35.2464 -81.0683 81° East 283 326 5,000  Level Atlanta Center
04:05PM 35.2503 -80.9792 87° East 277 319 5,000  Level Atlanta Center
04:06PM 35.2564 -80.8925 85° East 280 322 5,000  Level Atlanta Center
04:07PM 35.2275 -80.8175 115° Southeast 261 300 5,000 240 Level Atlanta Center
04:08PM 35.2064 -80.7292 106° East 272 313 5,600 900 Climbing Atlanta Center
04:09PM 35.2078 -80.6300 89° East 287 330 7,000 660 Climbing Atlanta Center
04:10PM 35.2072 -80.5358 90° East 288 331 7,000  Level Atlanta Center
04:11PM 35.2086 -80.4394 89° East 289 333 7,000  Level Atlanta Center
04:13PM 35.2072 -80.3607 91° East  Level FlightAware Approximate
04:20PM 35.2000 -79.8671 90° East  Level FlightAware Approximate
04:21PM 35.2000 -79.7966 90° East  Level FlightAware Approximate
04:22PM 35.2001 -79.7261 90° East  Level FlightAware Approximate
04:23PM 35.2001 -79.6556 90° East  Level FlightAware Approximate